首页
METAR-TAF:

METAR-TAF

机场 :

萨尔瓦多奥斯卡·阿努尔福·罗梅罗-伊-加尔达梅斯主教国际机场

萨尔瓦多, 萨尔瓦多

纬度: 13-26N, 经度: 089-03W, 海拔: 25米

当前天气观测

该预报发布于40分钟前的18:50 UTC
风速8节,风向南转西南,在西转西南之间变化
温度 30°C
湿度 79%
气压 1009 hPa
能见度10公里或以上
少量云层高于1300英尺
多云层高于2000英尺
少量云层高于3000英尺, 塔状积云.

METAR: MSLP 231850Z 21008KT 170V240 9999 FEW013 BKN020 FEW030TCU 30/26 Q1008 A2979 NOSIG RMK HZ TCU NE NW

时间: 13:30 (19:30 UTC)

预报

该预报发布于4小时和5分钟前的15:25 UTC
预报有效从23日的 18点(UTC)到 24日的 18点(UTC)
风速7节,风向西南
能见度10公里或以上
散云层高于2000英尺
少量云层高于3700英尺, 积雨云.
多云层高于4300英尺
几率 40% :
短暂存在
从 23日的 22点(UTC)到 23日的 24点(UTC)
能見度: 7000
雷暴, 雨
从 24日的 0000点(UTC)
风速4节,风向西
从 24日的 0200点(UTC)
风速15节,风向,有时为25节阵风
能見度: 3000
多云层高于1700英尺
散云层高于3300英尺, 积雨云.
雷暴, 大雨
从 24日的 0500点(UTC)
风速5节,风向北转东北
能見度: 7000
散云层高于1300英尺
多云层高于6000英尺

TAF: MSLP 231525Z 2318/2418 22007KT 9999 SCT020 FEW037CB BKN043 TX33/2318Z TN24/2412Z PROB40 TEMPO 2322/2324 7000 TSRA FM240000 27004KT FM240200 09015G25KT 3000 +TSRA BKN017 SCT033CB FM240500 03005KT 7000 RA SCT013 BKN060

超过4000个机场的气象观测和天气预报(METAR&TAF报告)。

可查询的气象台以黄色和红色小点在地图上表示。

将鼠标移到小点上方,可查看气象台名称。

然后点击查看天气观测和预报。

如需切换地图:点击带黑十字的绿色按钮放大地图;点击带横线的绿色按钮缩小地图;或者点击绿色箭头查看邻近地区的地图。


METAR-TAF: